Time;durP1;ratioP1;P1;durP2;ratioP2;P2;SDS_P1;SDS_P2;PMS_P1;PMS_P2;Temp;Humidity;BMP_temperature;BMP_pressure;BME280_temperature;BME280_humidity;BME280_pressure;Samples;Min_cycle;Max_cycle;Signal;HPM_P1;HPM_P2
2023/10/28 00:00:18;;;;;;;;;;;17.70;64.40;;;;;;4995885;28;88830;-45
2023/10/28 00:02:44;;;;;;;;;;;17.60;64.30;;;;;;4995907;28;86829;-43
2023/10/28 00:05:09;;;;;;;;;;;17.70;64.30;;;;;;4995254;28;86942;-46
2023/10/28 00:07:35;;;;;;;;;;;17.60;64.30;;;;;;4993793;28;88523;-45
2023/10/28 00:10:01;;;;;;;;;;;17.60;64.30;;;;;;4993321;28;88078;-45
2023/10/28 00:12:27;;;;;;;;;;;17.60;64.30;;;;;;4995060;28;89800;-44
2023/10/28 00:14:52;;;;;;;;;;;17.60;64.30;;;;;;4992524;28;88211;-45
2023/10/28 00:17:18;;;;;;;;;;;17.60;64.40;;;;;;4995933;28;87266;-44
2023/10/28 00:19:44;;;;;;;;;;;17.60;64.40;;;;;;4992838;28;87602;-43
2023/10/28 00:22:10;;;;;;;;;;;17.60;64.30;;;;;;4994320;28;89309;-47
2023/10/28 00:24:36;;;;;;;;;;;17.60;64.40;;;;;;4996207;28;87116;-44
2023/10/28 00:27:01;;;;;;;;;;;17.60;65.00;;;;;;4993807;28;87356;-44
2023/10/28 00:29:27;;;;;;;;;;;17.60;64.40;;;;;;4994725;28;87216;-44
2023/10/28 00:31:53;;;;;;;;;;;17.60;64.40;;;;;;4992311;28;89054;-44
2023/10/28 00:34:18;;;;;;;;;;;17.60;64.50;;;;;;4994452;28;90272;-46
2023/10/28 00:36:44;;;;;;;;;;;17.60;64.50;;;;;;4992595;28;87174;-45
2023/10/28 00:39:11;;;;;;;;;;;17.60;64.50;;;;;;4992966;28;88859;-44
2023/10/28 00:41:37;;;;;;;;;;;17.60;64.50;;;;;;4993220;28;87154;-44
2023/10/28 00:44:03;;;;;;;;;;;17.60;64.50;;;;;;4993379;28;87385;-45
2023/10/28 00:46:28;;;;;;;;;;;17.60;64.50;;;;;;4997391;28;87061;-44
2023/10/28 00:48:54;;;;;;;;;;;17.60;64.40;;;;;;4992202;28;87107;-44
2023/10/28 00:51:20;;;;;;;;;;;17.60;64.50;;;;;;4995489;28;87257;-46
2023/10/28 00:53:45;;;;;;;;;;;17.60;64.50;;;;;;4990984;28;89451;-44
2023/10/28 00:56:12;;;;;;;;;;;17.60;64.50;;;;;;4994331;28;87085;-44
2023/10/28 00:58:38;;;;;;;;;;;17.50;64.50;;;;;;4992802;28;88829;-44
2023/10/28 01:01:08;;;;;;;;;;;17.50;64.40;;;;;;4991722;28;88947;-44
2023/10/28 01:03:33;;;;;;;;;;;17.60;64.50;;;;;;4994559;28;87205;-45
2023/10/28 01:05:59;;;;;;;;;;;17.60;64.50;;;;;;4991554;28;89116;-44
2023/10/28 01:08:25;;;;;;;;;;;17.50;64.40;;;;;;4997455;28;87985;-44
2023/10/28 01:10:51;;;;;;;;;;;17.50;64.50;;;;;;4994046;28;87377;-47
2023/10/28 01:13:16;;;;;;;;;;;17.50;64.50;;;;;;4993044;28;87835;-44
2023/10/28 01:15:42;;;;;;;;;;;17.50;64.50;;;;;;4993358;28;86303;-46
2023/10/28 01:18:10;;;;;;;;;;;17.50;64.50;;;;;;4994263;28;87104;-44
2023/10/28 01:20:35;;;;;;;;;;;17.50;64.50;;;;;;4990886;28;89186;-44
2023/10/28 01:23:01;;;;;;;;;;;17.50;64.60;;;;;;4994251;28;88031;-44
2023/10/28 01:25:27;;;;;;;;;;;17.50;64.50;;;;;;4992033;28;88393;-44
2023/10/28 01:27:53;;;;;;;;;;;17.50;64.50;;;;;;4996116;28;88212;-46
2023/10/28 01:30:18;;;;;;;;;;;17.50;64.50;;;;;;4992748;28;87848;-45
2023/10/28 01:32:44;;;;;;;;;;;17.50;64.50;;;;;;4992178;28;88181;-44
2023/10/28 01:35:10;;;;;;;;;;;17.50;64.50;;;;;;4994142;28;87076;-44
2023/10/28 01:37:37;;;;;;;;;;;17.50;64.50;;;;;;4991235;28;87482;-44
2023/10/28 01:40:07;;;;;;;;;;;17.50;64.50;;;;;;4993815;28;88792;-43
2023/10/28 01:42:32;;;;;;;;;;;17.50;64.50;;;;;;4992444;28;87146;-44
2023/10/28 01:44:58;;;;;;;;;;;17.50;64.50;;;;;;4992369;28;88182;-44
2023/10/28 01:47:24;;;;;;;;;;;17.40;64.50;;;;;;4992675;28;88906;-44
2023/10/28 01:49:50;;;;;;;;;;;17.50;64.60;;;;;;4994146;28;87118;-44
2023/10/28 01:52:15;;;;;;;;;;;17.50;64.60;;;;;;4993372;28;87401;-44
2023/10/28 01:54:41;;;;;;;;;;;17.50;64.60;;;;;;4992699;28;87179;-45
2023/10/28 01:57:09;;;;;;;;;;;17.40;64.50;;;;;;4999004;28;90241;-44
2023/10/28 01:59:38;;;;;;;;;;;17.50;64.60;;;;;;4992232;28;89447;-44
2023/10/28 02:02:04;;;;;;;;;;;17.40;64.50;;;;;;4993566;28;87092;-44
2023/10/28 02:04:30;;;;;;;;;;;17.50;64.70;;;;;;4991438;28;88713;-44
2023/10/28 02:06:56;;;;;;;;;;;17.40;64.50;;;;;;4993873;28;87977;-44
2023/10/28 02:09:21;;;;;;;;;;;17.40;64.50;;;;;;4992636;28;87075;-43
2023/10/28 02:11:48;;;;;;;;;;;17.40;64.50;;;;;;4995298;28;87988;-44
2023/10/28 02:14:13;;;;;;;;;;;17.40;64.50;;;;;;4992066;28;87141;-44
2023/10/28 02:16:39;;;;;;;;;;;17.40;64.60;;;;;;4992049;28;87312;-44
2023/10/28 02:19:05;;;;;;;;;;;17.40;64.60;;;;;;4992623;28;89688;-45
2023/10/28 02:21:31;;;;;;;;;;;17.40;64.60;;;;;;4990931;28;87199;-46
2023/10/28 02:23:57;;;;;;;;;;;17.40;64.50;;;;;;4993857;28;87511;-44
2023/10/28 02:26:23;;;;;;;;;;;17.40;64.60;;;;;;4991691;28;87330;-44
2023/10/28 02:28:48;;;;;;;;;;;17.40;64.50;;;;;;4993217;28;86284;-44
2023/10/28 02:31:14;;;;;;;;;;;17.40;64.60;;;;;;4992163;28;87050;-44
2023/10/28 02:33:39;;;;;;;;;;;17.40;64.70;;;;;;4994367;28;88184;-46
2023/10/28 02:36:05;;;;;;;;;;;17.40;64.70;;;;;;4992417;28;88099;-44
2023/10/28 02:38:32;;;;;;;;;;;17.40;64.60;;;;;;4990157;28;89638;-44
2023/10/28 02:40:58;;;;;;;;;;;17.30;64.60;;;;;;4993768;28;87188;-44
2023/10/28 02:43:23;;;;;;;;;;;17.40;64.60;;;;;;4992709;28;87157;-43
2023/10/28 02:45:48;;;;;;;;;;;17.40;64.60;;;;;;4989538;28;88021;-45
2023/10/28 02:48:14;;;;;;;;;;;17.30;64.50;;;;;;4991706;28;87114;-44
2023/10/28 02:50:40;;;;;;;;;;;17.30;64.50;;;;;;4990872;28;88675;-44
2023/10/28 02:53:06;;;;;;;;;;;17.30;64.60;;;;;;4993317;28;87285;-44
2023/10/28 02:55:34;;;;;;;;;;;17.30;64.60;;;;;;4992906;28;88045;-43
2023/10/28 02:57:59;;;;;;;;;;;17.30;64.50;;;;;;4990042;28;88287;-44
2023/10/28 03:00:25;;;;;;;;;;;17.30;64.60;;;;;;4992358;28;88175;-43
2023/10/28 03:02:52;;;;;;;;;;;17.30;64.50;;;;;;4992222;28;88271;-44
2023/10/28 03:05:20;;;;;;;;;;;17.30;64.60;;;;;;4994765;28;88202;-45
2023/10/28 03:07:45;;;;;;;;;;;17.30;64.60;;;;;;4996303;28;87142;-43
2023/10/28 03:10:11;;;;;;;;;;;17.30;64.60;;;;;;4996186;28;87426;-44
2023/10/28 03:12:37;;;;;;;;;;;17.30;64.60;;;;;;4993404;28;88077;-43
2023/10/28 03:15:03;;;;;;;;;;;17.30;64.60;;;;;;4996285;28;87182;-43
2023/10/28 03:17:29;;;;;;;;;;;17.30;64.60;;;;;;4997478;28;88892;-43
2023/10/28 03:19:54;;;;;;;;;;;17.30;64.60;;;;;;4995236;28;87134;-44
2023/10/28 03:22:20;;;;;;;;;;;17.30;64.60;;;;;;4995659;28;87366;-44
2023/10/28 03:24:45;;;;;;;;;;;17.20;64.60;;;;;;4992964;28;89287;-44
2023/10/28 03:27:11;;;;;;;;;;;17.20;64.50;;;;;;4995712;28;87986;-44
2023/10/28 03:29:39;;;;;;;;;;;17.20;64.50;;;;;;4996681;28;87473;-43
2023/10/28 03:32:05;;;;;;;;;;;17.20;64.60;;;;;;4993656;28;88535;-46
2023/10/28 03:34:30;;;;;;;;;;;17.20;64.60;;;;;;4995492;28;87576;-46
2023/10/28 03:36:56;;;;;;;;;;;17.20;64.60;;;;;;4997342;28;87330;-46
2023/10/28 03:39:21;;;;;;;;;;;17.20;64.60;;;;;;4994316;28;87676;-43
2023/10/28 03:41:47;;;;;;;;;;;17.20;64.50;;;;;;4995447;28;87271;-44
2023/10/28 03:44:12;;;;;;;;;;;17.20;64.60;;;;;;4992766;28;88409;-45
2023/10/28 03:46:38;;;;;;;;;;;17.20;64.50;;;;;;4996293;28;87111;-44
2023/10/28 03:49:03;;;;;;;;;;;17.20;64.60;;;;;;4992788;28;87955;-44
2023/10/28 03:51:29;;;;;;;;;;;17.20;64.60;;;;;;4994746;28;87923;-46
2023/10/28 03:53:54;;;;;;;;;;;17.20;64.50;;;;;;4994488;28;87120;-44
2023/10/28 03:56:20;;;;;;;;;;;17.20;64.60;;;;;;4995873;28;87541;-44
2023/10/28 03:58:45;;;;;;;;;;;17.20;64.70;;;;;;4996186;28;88016;-44
2023/10/28 04:01:11;;;;;;;;;;;17.20;64.50;;;;;;4992560;28;87021;-45
2023/10/28 04:03:37;;;;;;;;;;;17.10;64.60;;;;;;4995856;28;88033;-43
2023/10/28 04:06:02;;;;;;;;;;;17.10;64.50;;;;;;4993129;28;86416;-44
2023/10/28 04:08:28;;;;;;;;;;;17.10;64.50;;;;;;4995457;28;86981;-44
2023/10/28 04:10:53;;;;;;;;;;;17.10;64.60;;;;;;4993551;28;86996;-44
2023/10/28 04:13:19;;;;;;;;;;;17.10;64.60;;;;;;4994870;28;88158;-44
2023/10/28 04:15:46;;;;;;;;;;;17.10;64.50;;;;;;4993641;28;88352;-44
2023/10/28 04:18:11;;;;;;;;;;;17.10;64.60;;;;;;4995236;28;88144;-44
2023/10/28 04:20:37;;;;;;;;;;;17.10;64.50;;;;;;4995291;28;87187;-46
2023/10/28 04:23:03;;;;;;;;;;;17.10;64.60;;;;;;4995489;28;87854;-44
2023/10/28 04:25:28;;;;;;;;;;;17.10;64.60;;;;;;4992934;28;87056;-45
2023/10/28 04:27:54;;;;;;;;;;;17.10;64.70;;;;;;4995225;28;87344;-45
2023/10/28 04:30:19;;;;;;;;;;;17.10;64.50;;;;;;4994018;28;87822;-43
2023/10/28 04:32:45;;;;;;;;;;;17.10;64.60;;;;;;4994418;28;87095;-45
2023/10/28 04:35:10;;;;;;;;;;;17.10;64.60;;;;;;4992914;28;87508;-44
2023/10/28 04:37:36;;;;;;;;;;;17.10;64.70;;;;;;4994612;28;88934;-43
2023/10/28 04:40:03;;;;;;;;;;;17.10;64.70;;;;;;4992160;28;87139;-44
2023/10/28 04:42:29;;;;;;;;;;;17.10;64.60;;;;;;4996292;28;88677;-44
2023/10/28 04:44:55;;;;;;;;;;;17.10;64.70;;;;;;4994150;28;87091;-44
2023/10/28 04:47:20;;;;;;;;;;;17.10;64.60;;;;;;4991347;28;87990;-44
2023/10/28 04:49:45;;;;;;;;;;;17.10;64.70;;;;;;4994029;28;88231;-45
2023/10/28 04:52:11;;;;;;;;;;;17.10;64.70;;;;;;4991070;28;87196;-45
2023/10/28 04:54:39;;;;;;;;;;;17.10;64.70;;;;;;4989311;28;87520;-44
2023/10/28 04:57:05;;;;;;;;;;;17.00;64.60;;;;;;4988628;28;87276;-44
2023/10/28 04:59:30;;;;;;;;;;;17.00;64.60;;;;;;4992746;28;87507;-44
2023/10/28 05:01:56;;;;;;;;;;;17.00;64.60;;;;;;4992505;28;88116;-46
2023/10/28 05:04:24;;;;;;;;;;;17.00;64.60;;;;;;4994183;28;87932;-44
2023/10/28 05:06:50;;;;;;;;;;;17.00;64.60;;;;;;4991839;28;87442;-44
2023/10/28 05:09:16;;;;;;;;;;;17.00;64.60;;;;;;4991486;28;88156;-46
2023/10/28 05:11:42;;;;;;;;;;;17.00;64.60;;;;;;4981250;28;87144;-43
2023/10/28 05:14:10;;;;;;;;;;;17.00;64.60;;;;;;4987801;28;88015;-44
2023/10/28 05:16:36;;;;;;;;;;;17.00;64.60;;;;;;4987242;28;88281;-44
2023/10/28 05:19:01;;;;;;;;;;;17.00;64.60;;;;;;4993520;28;86720;-44
2023/10/28 05:21:27;;;;;;;;;;;17.00;64.60;;;;;;4992744;28;87293;-44
2023/10/28 05:23:52;;;;;;;;;;;17.00;64.60;;;;;;4990538;28;88311;-44
2023/10/28 05:26:18;;;;;;;;;;;17.00;64.60;;;;;;4991418;28;88016;-47
2023/10/28 05:28:46;;;;;;;;;;;17.00;64.60;;;;;;4994320;28;87819;-44
2023/10/28 05:31:12;;;;;;;;;;;17.00;65.20;;;;;;4993074;28;87113;-44
2023/10/28 05:33:37;;;;;;;;;;;16.90;64.70;;;;;;4990626;28;87351;-43
2023/10/28 05:36:05;;;;;;;;;;;16.90;64.60;;;;;;4989130;28;87966;-43
2023/10/28 05:38:31;;;;;;;;;;;16.90;64.60;;;;;;4994070;28;87125;-43
2023/10/28 05:40:57;;;;;;;;;;;16.90;64.60;;;;;;4988274;28;88824;-44
2023/10/28 05:43:22;;;;;;;;;;;16.90;64.60;;;;;;4987972;28;87514;-44
2023/10/28 05:45:48;;;;;;;;;;;16.90;64.60;;;;;;4993721;28;87157;-43
2023/10/28 05:48:14;;;;;;;;;;;16.90;64.60;;;;;;4992033;28;88158;-44
2023/10/28 05:50:39;;;;;;;;;;;16.90;64.60;;;;;;4987481;28;88154;-46
2023/10/28 05:53:05;;;;;;;;;;;16.90;64.60;;;;;;4991810;28;88193;-43
2023/10/28 05:55:31;;;;;;;;;;;16.90;64.60;;;;;;4989784;28;89252;-43
2023/10/28 05:57:57;;;;;;;;;;;16.90;64.60;;;;;;4993584;28;87168;-44
2023/10/28 06:00:23;;;;;;;;;;;16.90;64.80;;;;;;4987247;28;87741;-46
2023/10/28 06:02:48;;;;;;;;;;;16.90;64.70;;;;;;4989231;28;88317;-44
2023/10/28 06:05:14;;;;;;;;;;;16.90;64.70;;;;;;4992067;28;87113;-44
2023/10/28 06:07:40;;;;;;;;;;;16.90;64.60;;;;;;4995384;28;88887;-44
2023/10/28 06:10:07;;;;;;;;;;;16.80;64.60;;;;;;4991784;28;87680;-44
2023/10/28 06:12:34;;;;;;;;;;;16.90;64.60;;;;;;4990764;28;87309;-46
2023/10/28 06:15:01;;;;;;;;;;;16.90;64.60;;;;;;4989738;28;89034;-44
2023/10/28 06:17:26;;;;;;;;;;;16.90;64.50;;;;;;4992913;28;87293;-44
2023/10/28 06:19:52;;;;;;;;;;;16.90;64.50;;;;;;4990181;28;87354;-45
2023/10/28 06:22:17;;;;;;;;;;;16.90;64.50;;;;;;4989520;28;88636;-44
2023/10/28 06:24:43;;;;;;;;;;;17.00;64.40;;;;;;4991886;28;87075;-43
2023/10/28 06:27:08;;;;;;;;;;;16.90;64.50;;;;;;4989837;28;88873;-45
2023/10/28 06:29:34;;;;;;;;;;;16.90;64.40;;;;;;4990761;28;88023;-44
2023/10/28 06:31:59;;;;;;;;;;;16.90;64.50;;;;;;4990632;28;87410;-44
2023/10/28 06:34:28;;;;;;;;;;;16.90;64.40;;;;;;4991034;28;88130;-44
2023/10/28 06:36:54;;;;;;;;;;;16.90;64.40;;;;;;4984168;28;87093;-44
2023/10/28 06:39:20;;;;;;;;;;;16.90;64.40;;;;;;4988189;28;88150;-44
2023/10/28 06:41:45;;;;;;;;;;;17.00;64.40;;;;;;4989700;28;88119;-45
2023/10/28 06:44:11;;;;;;;;;;;17.00;64.40;;;;;;4993788;28;88051;-44
2023/10/28 06:46:39;;;;;;;;;;;16.90;64.40;;;;;;4987216;28;87545;-44
2023/10/28 06:49:05;;;;;;;;;;;17.00;64.40;;;;;;4987728;28;87878;-44
2023/10/28 06:51:32;;;;;;;;;;;17.00;64.50;;;;;;4993882;28;87129;-43
2023/10/28 06:53:58;;;;;;;;;;;17.00;64.40;;;;;;4992005;28;87997;-46
2023/10/28 06:56:25;;;;;;;;;;;16.90;64.40;;;;;;4990944;28;86403;-44
2023/10/28 06:58:51;;;;;;;;;;;17.00;64.40;;;;;;4990439;28;88262;-44
2023/10/28 07:01:18;;;;;;;;;;;17.00;64.50;;;;;;4989506;28;88366;-43
2023/10/28 07:03:44;;;;;;;;;;;17.00;64.50;;;;;;4989880;28;88174;-44
2023/10/28 07:06:14;;;;;;;;;;;17.00;64.40;;;;;;4988088;28;88309;-45
2023/10/28 07:08:40;;;;;;;;;;;17.00;64.40;;;;;;4991680;28;89480;-43
2023/10/28 07:11:05;;;;;;;;;;;17.00;64.40;;;;;;4990434;28;87119;-44
2023/10/28 07:13:31;;;;;;;;;;;17.00;64.40;;;;;;4993853;28;87375;-45
2023/10/28 07:16:03;;;;;;;;;;;17.00;64.50;;;;;;4987159;28;87147;-44
2023/10/28 07:18:29;;;;;;;;;;;17.00;64.40;;;;;;4991177;28;87148;-44
2023/10/28 07:20:55;;;;;;;;;;;17.00;64.40;;;;;;4990421;28;88618;-46
2023/10/28 07:23:21;;;;;;;;;;;17.00;64.50;;;;;;4989933;28;88252;-44
2023/10/28 07:25:46;;;;;;;;;;;17.00;64.40;;;;;;4988298;28;87527;-44
2023/10/28 07:28:14;;;;;;;;;;;17.00;64.40;;;;;;4988854;28;89138;-45
2023/10/28 07:30:50;;;;;;;;;;;17.00;64.50;;;;;;4990835;28;87228;-44
2023/10/28 07:33:17;;;;;;;;;;;17.00;64.40;;;;;;4991651;28;87582;-45
2023/10/28 07:35:47;;;;;;;;;;;17.00;64.50;;;;;;4986283;28;87252;-45
2023/10/28 07:38:13;;;;;;;;;;;17.00;64.50;;;;;;4989831;28;88967;-45
2023/10/28 07:40:39;;;;;;;;;;;17.00;64.50;;;;;;4993448;28;88093;-44
2023/10/28 07:43:05;;;;;;;;;;;17.00;64.60;;;;;;4987801;28;87220;-46
2023/10/28 07:45:31;;;;;;;;;;;17.00;64.50;;;;;;4988557;28;86555;-44
2023/10/28 07:47:56;;;;;;;;;;;17.00;64.50;;;;;;4992204;28;88026;-45
2023/10/28 07:50:22;;;;;;;;;;;17.00;64.50;;;;;;4991690;28;87235;-44
2023/10/28 07:52:47;;;;;;;;;;;17.00;64.50;;;;;;4993861;28;88219;-45
2023/10/28 07:55:13;;;;;;;;;;;17.00;64.50;;;;;;4995324;28;88350;-44
2023/10/28 07:57:38;;;;;;;;;;;17.00;64.40;;;;;;4995375;28;88945;-46
2023/10/28 08:00:05;;;;;;;;;;;17.10;64.50;;;;;;4986626;28;88161;-44
2023/10/28 08:02:31;;;;;;;;;;;17.10;64.50;;;;;;4989178;28;87151;-43
2023/10/28 08:04:57;;;;;;;;;;;17.10;64.50;;;;;;4992703;28;87956;-45
2023/10/28 08:07:24;;;;;;;;;;;17.10;64.40;;;;;;4993172;28;87971;-46
2023/10/28 08:09:50;;;;;;;;;;;17.10;64.40;;;;;;4993587;28;87196;-44
2023/10/28 08:12:16;;;;;;;;;;;17.10;64.30;;;;;;4993280;28;87129;-44
2023/10/28 08:14:44;;;;;;;;;;;17.10;64.30;;;;;;4989284;28;88122;-46
2023/10/28 08:17:10;;;;;;;;;;;17.10;64.30;;;;;;4997246;28;88144;-46
2023/10/28 08:19:36;;;;;;;;;;;17.10;64.30;;;;;;4988972;28;89736;-46
2023/10/28 08:22:02;;;;;;;;;;;17.10;64.40;;;;;;4992458;28;87556;-44
2023/10/28 08:24:27;;;;;;;;;;;17.10;64.40;;;;;;4992123;28;88441;-45
2023/10/28 08:26:53;;;;;;;;;;;17.10;65.10;;;;;;4993613;28;86999;-45
2023/10/28 08:29:19;;;;;;;;;;;17.20;64.40;;;;;;4992448;28;87876;-44
2023/10/28 08:31:44;;;;;;;;;;;17.10;64.50;;;;;;4988900;28;88461;-44
2023/10/28 08:34:10;;;;;;;;;;;17.10;64.60;;;;;;4993471;28;88560;-46
2023/10/28 08:36:35;;;;;;;;;;;17.10;64.70;;;;;;4994032;28;87214;-44
2023/10/28 08:39:01;;;;;;;;;;;17.10;64.70;;;;;;4991703;28;87404;-45
2023/10/28 08:41:26;;;;;;;;;;;17.10;64.80;;;;;;4989793;28;88128;-46
2023/10/28 08:43:53;;;;;;;;;;;17.20;64.80;;;;;;4992497;28;88377;-44
2023/10/28 08:46:18;;;;;;;;;;;17.20;64.80;;;;;;4996330;28;88212;-46
2023/10/28 08:48:44;;;;;;;;;;;17.20;64.80;;;;;;4992643;28;87903;-44
2023/10/28 08:51:10;;;;;;;;;;;17.20;64.80;;;;;;4989056;28;87395;-45
2023/10/28 08:53:36;;;;;;;;;;;17.20;64.90;;;;;;4994217;28;88161;-47
2023/10/28 08:56:02;;;;;;;;;;;17.20;64.90;;;;;;4991494;28;87137;-46
2023/10/28 08:58:28;;;;;;;;;;;17.20;64.90;;;;;;4992708;28;86366;-44
2023/10/28 09:00:58;;;;;;;;;;;17.20;64.90;;;;;;4992967;28;88363;-43
2023/10/28 09:03:25;;;;;;;;;;;17.20;65.00;;;;;;4993235;28;88728;-44
2023/10/28 09:05:52;;;;;;;;;;;17.30;65.10;;;;;;4989199;28;88464;-45
2023/10/28 09:08:18;;;;;;;;;;;17.20;65.10;;;;;;4989085;28;87399;-45
2023/10/28 09:10:45;;;;;;;;;;;17.20;65.10;;;;;;4991415;28;87390;-46
2023/10/28 09:13:12;;;;;;;;;;;17.20;65.00;;;;;;4993385;28;87635;-44
2023/10/28 09:15:37;;;;;;;;;;;17.30;65.70;;;;;;4991420;28;88864;-44
2023/10/28 09:18:03;;;;;;;;;;;17.30;65.00;;;;;;4990013;28;87181;-44
2023/10/28 09:20:29;;;;;;;;;;;17.30;65.10;;;;;;4993150;28;88307;-45
2023/10/28 09:22:54;;;;;;;;;;;17.30;65.00;;;;;;4993558;28;86368;-45
2023/10/28 09:25:21;;;;;;;;;;;17.30;65.10;;;;;;4995198;28;87551;-44
2023/10/28 09:27:47;;;;;;;;;;;17.30;65.10;;;;;;4990219;28;87415;-46
2023/10/28 09:30:13;;;;;;;;;;;17.30;65.10;;;;;;4991474;28;88303;-45
2023/10/28 09:32:38;;;;;;;;;;;17.30;65.10;;;;;;4993446;28;88958;-46
2023/10/28 09:35:07;;;;;;;;;;;17.30;65.10;;;;;;4987481;28;87166;-44
2023/10/28 09:37:34;;;;;;;;;;;17.30;65.10;;;;;;4990197;28;87309;-46
2023/10/28 09:40:01;;;;;;;;;;;17.30;65.00;;;;;;4994423;28;88007;-45
2023/10/28 09:42:29;;;;;;;;;;;17.40;65.00;;;;;;4995072;28;88457;-45
2023/10/28 09:44:55;;;;;;;;;;;17.30;64.80;;;;;;4993385;28;88053;-46
2023/10/28 09:47:22;;;;;;;;;;;17.40;65.10;;;;;;4991202;28;86277;-44
2023/10/28 09:49:52;;;;;;;;;;;17.40;64.90;;;;;;4991898;28;88260;-44
2023/10/28 09:52:19;;;;;;;;;;;17.40;65.10;;;;;;4989675;28;89345;-45
2023/10/28 09:54:49;;;;;;;;;;;17.40;64.90;;;;;;4987316;28;88123;-44
2023/10/28 09:57:14;;;;;;;;;;;17.40;64.90;;;;;;4992352;28;88380;-46
2023/10/28 09:59:44;;;;;;;;;;;17.40;64.90;;;;;;4991120;28;88099;-45
2023/10/28 10:02:15;;;;;;;;;;;17.40;64.80;;;;;;4991845;28;88848;-45
2023/10/28 10:04:55;;;;;;;;;;;17.40;64.80;;;;;;4990416;28;87128;-47
2023/10/28 10:07:21;;;;;;;;;;;17.50;64.80;;;;;;4993478;28;87167;-44
2023/10/28 10:09:49;;;;;;;;;;;17.50;64.90;;;;;;4990908;28;90256;-45
2023/10/28 10:12:15;;;;;;;;;;;17.50;64.80;;;;;;4988071;28;87351;-44
2023/10/28 10:14:50;;;;;;;;;;;17.50;64.80;;;;;;4989495;28;87116;-45
2023/10/28 10:17:34;;;;;;;;;;;17.50;64.80;;;;;;4991033;28;87674;-45
2023/10/28 10:20:04;;;;;;;;;;;17.50;64.80;;;;;;4992769;28;88917;-44
2023/10/28 10:22:30;;;;;;;;;;;17.50;64.80;;;;;;4995652;28;87255;-46
2023/10/28 10:24:55;;;;;;;;;;;17.60;64.80;;;;;;4989559;28;87312;-44
2023/10/28 10:27:33;;;;;;;;;;;17.50;64.70;;;;;;4993410;28;88149;-45
2023/10/28 10:30:06;;;;;;;;;;;17.50;64.80;;;;;;4989827;28;87431;-44
2023/10/28 10:32:39;;;;;;;;;;;17.50;64.80;;;;;;4985542;28;87997;-44
2023/10/28 10:35:31;;;;;;;;;;;17.60;65.00;;;;;;4991691;28;88317;-44
2023/10/28 10:38:15;;;;;;;;;;;17.60;64.90;;;;;;4994584;28;87425;-46
2023/10/28 10:40:46;;;;;;;;;;;17.60;64.90;;;;;;4989523;28;88256;-47
2023/10/28 10:43:16;;;;;;;;;;;17.60;64.90;;;;;;4992494;28;88034;-46
2023/10/28 10:45:42;;;;;;;;;;;17.60;64.90;;;;;;4988545;28;88871;-46
2023/10/28 10:48:08;;;;;;;;;;;17.60;64.90;;;;;;4991678;28;88215;-45
2023/10/28 10:50:34;;;;;;;;;;;17.60;64.80;;;;;;4990902;28;87157;-44
2023/10/28 10:53:00;;;;;;;;;;;17.60;64.80;;;;;;4991945;28;88155;-45
2023/10/28 10:55:28;;;;;;;;;;;17.70;64.70;;;;;;4992143;28;86983;-46
2023/10/28 10:57:54;;;;;;;;;;;17.70;64.70;;;;;;4991499;28;88037;-44
2023/10/28 11:00:20;;;;;;;;;;;17.70;64.60;;;;;;4987435;28;87977;-44
2023/10/28 11:02:47;;;;;;;;;;;17.60;64.70;;;;;;4990436;28;86379;-46
2023/10/28 11:05:13;;;;;;;;;;;17.70;64.60;;;;;;4991337;28;88152;-44
2023/10/28 11:07:38;;;;;;;;;;;17.70;64.60;;;;;;4986930;28;88108;-43
2023/10/28 11:10:04;;;;;;;;;;;17.70;64.50;;;;;;4985512;28;88070;-46
2023/10/28 11:12:30;;;;;;;;;;;17.70;64.60;;;;;;4995313;28;88465;-48
2023/10/28 11:14:56;;;;;;;;;;;17.80;64.50;;;;;;4988476;28;87168;-46
2023/10/28 11:17:23;;;;;;;;;;;17.80;64.60;;;;;;4989846;28;87323;-44
2023/10/28 11:19:49;;;;;;;;;;;17.80;64.60;;;;;;4988403;28;87319;-44
2023/10/28 11:22:18;;;;;;;;;;;17.80;64.60;;;;;;4991229;28;87114;-45
2023/10/28 11:24:44;;;;;;;;;;;17.80;64.70;;;;;;4991918;28;87415;-44
2023/10/28 11:27:17;;;;;;;;;;;17.80;64.60;;;;;;4994475;28;87249;-44
2023/10/28 11:29:43;;;;;;;;;;;17.80;64.50;;;;;;4992913;28;87056;-46
2023/10/28 11:32:09;;;;;;;;;;;17.80;64.40;;;;;;4996025;28;87074;-44
2023/10/28 11:34:38;;;;;;;;;;;17.80;64.40;;;;;;4993928;28;89094;-45
2023/10/28 11:37:03;;;;;;;;;;;17.90;64.50;;;;;;4991055;28;88201;-44
2023/10/28 11:39:33;;;;;;;;;;;17.80;64.40;;;;;;4992832;28;88478;-45
2023/10/28 11:42:08;;;;;;;;;;;17.90;64.50;;;;;;4993912;28;86957;-45
2023/10/28 11:44:34;;;;;;;;;;;17.90;64.50;;;;;;4992213;28;87530;-46
2023/10/28 11:46:59;;;;;;;;;;;17.80;64.50;;;;;;4993335;28;88424;-45
2023/10/28 11:49:25;;;;;;;;;;;17.90;64.50;;;;;;4996237;28;87998;-45
2023/10/28 11:51:51;;;;;;;;;;;17.90;64.50;;;;;;4994522;28;87493;-47
2023/10/28 11:54:17;;;;;;;;;;;17.90;64.50;;;;;;4993904;28;88047;-45
2023/10/28 11:56:43;;;;;;;;;;;17.90;64.30;;;;;;4990012;28;87291;-45
2023/10/28 11:59:09;;;;;;;;;;;17.90;64.40;;;;;;4993506;28;90589;-46
2023/10/28 12:01:36;;;;;;;;;;;18.00;64.40;;;;;;4994995;28;87204;-46
2023/10/28 12:04:03;;;;;;;;;;;18.00;64.40;;;;;;4992085;28;88983;-45
2023/10/28 12:06:29;;;;;;;;;;;18.00;64.40;;;;;;4990120;28;91280;-46
2023/10/28 12:08:57;;;;;;;;;;;18.00;64.40;;;;;;4992415;28;87114;-45
2023/10/28 12:11:23;;;;;;;;;;;18.00;64.40;;;;;;4995208;28;88385;-47
2023/10/28 12:13:48;;;;;;;;;;;18.00;64.40;;;;;;4988623;28;88542;-46
2023/10/28 12:16:15;;;;;;;;;;;18.00;64.40;;;;;;4995781;28;86481;-46
2023/10/28 12:18:40;;;;;;;;;;;18.00;64.40;;;;;;4993057;28;87909;-44
2023/10/28 12:21:06;;;;;;;;;;;18.00;64.40;;;;;;4995029;28;87067;-45
2023/10/28 12:23:31;;;;;;;;;;;18.00;64.40;;;;;;4987029;28;88190;-44
2023/10/28 12:25:57;;;;;;;;;;;18.10;64.40;;;;;;4991725;28;88015;-45
2023/10/28 12:28:22;;;;;;;;;;;18.00;64.30;;;;;;4994573;28;87166;-46
2023/10/28 12:30:48;;;;;;;;;;;18.10;64.40;;;;;;4984806;28;88642;-49
2023/10/28 12:33:14;;;;;;;;;;;18.10;64.40;;;;;;4990661;28;88071;-44
2023/10/28 12:35:39;;;;;;;;;;;18.10;64.40;;;;;;4992973;28;87032;-44
2023/10/28 12:38:05;;;;;;;;;;;18.10;64.30;;;;;;4998630;28;89107;-44
2023/10/28 12:40:32;;;;;;;;;;;18.10;64.40;;;;;;4989824;28;86606;-44
2023/10/28 12:42:57;;;;;;;;;;;18.10;64.40;;;;;;4988418;28;87253;-45
2023/10/28 12:45:23;;;;;;;;;;;18.20;64.40;;;;;;4994019;28;88756;-45
2023/10/28 12:47:49;;;;;;;;;;;18.20;64.30;;;;;;4990769;28;88744;-45
2023/10/28 12:50:17;;;;;;;;;;;18.10;64.40;;;;;;4989536;28;88485;-46
2023/10/28 12:52:43;;;;;;;;;;;18.20;64.30;;;;;;4990243;28;88575;-44
2023/10/28 12:55:08;;;;;;;;;;;18.20;64.30;;;;;;4995321;28;87144;-48
2023/10/28 12:57:34;;;;;;;;;;;18.20;64.30;;;;;;4990275;28;87356;-45
2023/10/28 12:59:59;;;;;;;;;;;18.20;64.20;;;;;;4992503;28;87996;-45
2023/10/28 13:02:25;;;;;;;;;;;18.20;64.20;;;;;;4989308;28;87035;-44
2023/10/28 13:04:51;;;;;;;;;;;18.20;64.20;;;;;;4994453;28;88715;-46
2023/10/28 13:07:16;;;;;;;;;;;18.20;64.20;;;;;;4994032;28;87345;-45
2023/10/28 13:09:42;;;;;;;;;;;18.30;64.20;;;;;;4989287;28;87453;-42
2023/10/28 13:12:08;;;;;;;;;;;18.30;64.20;;;;;;4990080;28;89058;-43
2023/10/28 13:14:36;;;;;;;;;;;18.20;64.10;;;;;;4990653;28;87146;-43
2023/10/28 13:17:02;;;;;;;;;;;18.30;64.30;;;;;;4991668;28;87853;-44
2023/10/28 13:19:29;;;;;;;;;;;18.30;64.20;;;;;;4989657;28;87654;-44
2023/10/28 13:21:54;;;;;;;;;;;18.30;64.30;;;;;;4995729;28;87128;-44
2023/10/28 13:24:20;;;;;;;;;;;18.30;64.20;;;;;;4992922;28;87102;-44
2023/10/28 13:26:49;;;;;;;;;;;18.30;64.20;;;;;;4992334;28;87178;-43
2023/10/28 13:29:14;;;;;;;;;;;18.30;64.30;;;;;;4990906;28;87542;-44
2023/10/28 13:31:40;;;;;;;;;;;18.30;64.20;;;;;;4991750;28;88247;-45
2023/10/28 13:34:06;;;;;;;;;;;18.30;64.20;;;;;;4992350;28;87961;-45
2023/10/28 13:36:32;;;;;;;;;;;18.30;64.10;;;;;;4986594;28;88686;-45
2023/10/28 13:38:57;;;;;;;;;;;18.40;64.30;;;;;;4990018;28;88351;-44
2023/10/28 13:41:24;;;;;;;;;;;18.40;64.20;;;;;;4994236;28;87185;-44
2023/10/28 13:43:49;;;;;;;;;;;18.30;64.00;;;;;;4995644;28;87073;-44
2023/10/28 13:46:16;;;;;;;;;;;18.40;63.90;;;;;;4989417;28;87165;-46
2023/10/28 13:48:41;;;;;;;;;;;18.40;64.00;;;;;;4987744;28;87663;-44
2023/10/28 13:51:07;;;;;;;;;;;18.40;63.90;;;;;;4991705;28;88307;-45
2023/10/28 13:53:32;;;;;;;;;;;18.40;63.90;;;;;;4996273;28;86371;-45
2023/10/28 13:55:58;;;;;;;;;;;18.40;63.80;;;;;;4991710;28;87094;-44
2023/10/28 13:58:24;;;;;;;;;;;18.40;63.80;;;;;;4989878;28;87977;-44
2023/10/28 14:00:50;;;;;;;;;;;18.40;63.90;;;;;;4989963;28;88332;-47
2023/10/28 14:03:17;;;;;;;;;;;18.40;63.70;;;;;;4995395;28;88596;-45
2023/10/28 14:05:43;;;;;;;;;;;18.40;63.70;;;;;;4991281;28;88587;-44
2023/10/28 14:08:09;;;;;;;;;;;18.40;63.60;;;;;;4990194;28;88967;-44
2023/10/28 14:10:36;;;;;;;;;;;18.40;63.60;;;;;;4991617;28;88279;-44